createdAt,value
2018-02-24T00:00:28.699Z,94.40
2018-02-24T00:02:58.925Z,94.00
2018-02-24T00:05:28.899Z,94.50
2018-02-24T00:07:59.097Z,94.50
2018-02-24T00:10:29.725Z,94.60
2018-02-24T00:13:00.834Z,94.10
2018-02-24T00:15:31.054Z,94.10
2018-02-24T00:18:01.282Z,93.90
2018-02-24T00:20:33.105Z,94.10
2018-02-24T00:23:03.635Z,94.10
2018-02-24T00:25:33.675Z,94.00
2018-02-24T00:28:04.303Z,94.10
2018-02-24T00:30:35.144Z,93.50
2018-02-24T00:33:05.257Z,93.50
2018-02-24T00:35:35.624Z,93.40
2018-02-24T00:38:05.839Z,92.30
2018-02-24T00:40:36.126Z,91.70
2018-02-24T00:43:06.427Z,90.90
2018-02-24T00:45:36.770Z,91.20
2018-02-24T00:48:07.417Z,91.00
2018-02-24T00:50:38.335Z,90.90
2018-02-24T00:53:08.642Z,90.60
2018-02-24T00:55:41.237Z,91.00
2018-02-24T00:58:11.515Z,90.40
2018-02-24T01:00:42.660Z,89.20
2018-02-24T01:03:13.717Z,87.80
2018-02-24T01:05:44.405Z,85.60
2018-02-24T01:08:15.479Z,85.60
2018-02-24T01:10:46.833Z,86.90
2018-02-24T01:13:16.923Z,87.00
2018-02-24T01:15:47.253Z,87.10
2018-02-24T01:18:18.118Z,87.50
2018-02-24T01:20:49.521Z,87.50
2018-02-24T01:23:20.661Z,86.10
2018-02-24T01:25:51.207Z,86.00
2018-02-24T01:28:21.406Z,86.80
2018-02-24T01:30:51.621Z,85.00
2018-02-24T01:33:21.650Z,84.50
2018-02-24T01:35:52.426Z,84.70
2018-02-24T01:38:23.530Z,86.60
2018-02-24T01:40:53.787Z,86.60
2018-02-24T01:43:24.868Z,85.00
2018-02-24T01:45:54.914Z,85.00
2018-02-24T01:48:25.765Z,84.10
2018-02-24T01:50:55.773Z,85.00
2018-02-24T01:53:25.570Z,84.60
2018-02-24T01:55:55.703Z,82.90
2018-02-24T01:58:26.014Z,83.20
2018-02-24T02:00:56.298Z,82.00
2018-02-24T02:03:27.088Z,82.70
2018-02-24T02:05:57.485Z,82.60
2018-02-24T02:08:27.532Z,84.10
2018-02-24T02:10:58.274Z,84.70
2018-02-24T02:13:28.462Z,84.50
2018-02-24T02:15:58.779Z,83.30
2018-02-24T02:18:29.080Z,81.50
2018-02-24T02:20:59.989Z,80.00
2018-02-24T02:23:30.075Z,80.00
2018-02-24T02:26:00.486Z,79.20
2018-02-24T02:28:30.626Z,79.50
2018-02-24T02:31:01.166Z,80.80
2018-02-24T02:33:31.898Z,81.10
2018-02-24T02:36:02.390Z,79.90
2018-02-24T02:38:32.451Z,77.30
2018-02-24T02:41:03.003Z,78.50
2018-02-24T02:43:34.321Z,80.90
2018-02-24T02:46:04.553Z,80.90
2018-02-24T02:48:34.558Z,79.30
2018-02-24T02:51:04.515Z,79.20
2018-02-24T02:53:35.449Z,81.20
2018-02-24T02:56:06.639Z,81.20
2018-02-24T02:58:36.898Z,81.10
2018-02-24T03:01:06.795Z,79.60
2018-02-24T03:03:37.012Z,80.40
2018-02-24T03:06:07.515Z,79.30
2018-02-24T03:08:37.742Z,80.40
2018-02-24T03:11:07.781Z,81.50
2018-02-24T03:13:38.037Z,82.00
2018-02-24T03:16:08.355Z,82.50
2018-02-24T03:18:38.548Z,82.40
2018-02-24T03:21:08.716Z,82.90
2018-02-24T03:23:40.843Z,84.20
2018-02-24T03:26:11.003Z,84.20
2018-02-24T03:28:41.742Z,84.10
2018-02-24T03:31:12.249Z,84.80
2018-02-24T03:33:42.258Z,82.90
2018-02-24T03:36:12.766Z,83.70
2018-02-24T03:38:42.943Z,82.90
2018-02-24T03:41:13.294Z,82.50
2018-02-24T03:43:43.575Z,80.50
2018-02-24T03:46:14.774Z,78.10
2018-02-24T03:48:45.771Z,78.10
2018-02-24T03:51:16.762Z,78.40
2018-02-24T03:53:46.875Z,78.50
2018-02-24T03:56:17.101Z,78.00
2018-02-24T03:58:47.196Z,74.50
2018-02-24T04:01:17.338Z,73.20
2018-02-24T04:03:47.661Z,73.70
2018-02-24T04:06:18.260Z,74.10
2018-02-24T04:08:48.509Z,74.00
2018-02-24T04:11:18.357Z,76.00
2018-02-24T04:13:49.367Z,74.50
2018-02-24T04:16:19.583Z,74.40
2018-02-24T04:18:49.605Z,74.00
2018-02-24T04:21:21.012Z,72.60
2018-02-24T04:23:51.222Z,72.60
2018-02-24T04:26:22.228Z,73.20
2018-02-24T04:28:52.417Z,73.30
2018-02-24T04:31:22.759Z,72.80
2018-02-24T04:33:53.334Z,73.00
2018-02-24T04:36:24.616Z,73.60
2018-02-24T04:38:55.577Z,73.50
2018-02-24T04:41:25.693Z,73.40
2018-02-24T04:43:55.845Z,73.60
2018-02-24T04:46:26.037Z,74.00
2018-02-24T04:48:56.874Z,72.90
2018-02-24T04:51:26.918Z,73.70
2018-02-24T04:53:56.991Z,73.50
2018-02-24T04:56:27.129Z,75.00
2018-02-24T04:58:56.850Z,74.40
2018-02-24T05:01:27.362Z,74.40
2018-02-24T05:03:57.697Z,72.90
2018-02-24T05:06:27.982Z,72.70
2018-02-24T05:08:58.323Z,72.90
2018-02-24T05:11:28.551Z,71.80
2018-02-24T05:13:58.951Z,72.50
2018-02-24T05:16:29.075Z,72.70
2018-02-24T05:18:59.430Z,72.30
2018-02-24T05:21:29.827Z,72.00
2018-02-24T05:23:59.874Z,73.10
2018-02-24T05:26:30.579Z,71.40
2018-02-24T05:29:00.924Z,71.30
2018-02-24T05:31:31.182Z,70.60
2018-02-24T05:34:01.349Z,70.80
2018-02-24T05:36:31.234Z,70.00
2018-02-24T05:39:02.630Z,68.10
2018-02-24T05:41:33.156Z,68.00
2018-02-24T05:44:03.472Z,69.40
2018-02-24T05:46:34.408Z,69.40
2018-02-24T05:49:05.004Z,68.20
2018-02-24T05:51:35.952Z,67.60
2018-02-24T05:54:06.625Z,67.20
2018-02-24T05:56:37.317Z,67.60
2018-02-24T05:59:09.101Z,66.30
2018-02-24T06:01:39.661Z,66.20
2018-02-24T06:04:10.426Z,66.00
2018-02-24T06:06:40.778Z,66.70
2018-02-24T06:09:11.212Z,65.10
2018-02-24T06:11:41.576Z,65.00
2018-02-24T06:14:11.798Z,64.50
2018-02-24T06:16:41.860Z,65.60
2018-02-24T06:19:12.593Z,64.70
2018-02-24T06:21:43.179Z,64.60
2018-02-24T06:24:13.494Z,64.30
2018-02-24T06:26:43.942Z,64.00
2018-02-24T06:29:13.991Z,63.70
2018-02-24T06:31:44.982Z,64.10
2018-02-24T06:34:15.038Z,64.00
2018-02-24T06:36:45.321Z,64.10
2018-02-24T06:39:15.541Z,64.70
2018-02-24T06:41:45.727Z,64.90
2018-02-24T06:44:16.175Z,64.70
2018-02-24T06:46:46.580Z,64.70
2018-02-24T06:49:16.858Z,64.10
2018-02-24T06:51:47.048Z,64.80
2018-02-24T06:54:17.285Z,65.10
2018-02-24T06:56:47.827Z,64.80
2018-02-24T06:59:18.066Z,64.80
2018-02-24T07:01:49.373Z,62.80
2018-02-24T07:04:19.843Z,62.70
2018-02-24T07:09:24.930Z,64.70
2018-02-24T07:11:54.581Z,67.50
2018-02-24T07:14:24.283Z,68.60
2018-02-24T07:16:53.994Z,69.10
2018-02-24T07:19:24.465Z,67.20
2018-02-24T07:21:55.865Z,71.20
2018-02-24T07:24:25.969Z,71.20
2018-02-24T07:26:56.110Z,72.40
2018-02-24T07:29:27.374Z,74.00
2018-02-24T07:31:57.530Z,73.90
2018-02-24T07:34:27.690Z,74.50
2018-02-24T07:36:57.678Z,74.90
2018-02-24T07:39:27.845Z,75.00
2018-02-24T07:41:58.563Z,75.30
2018-02-24T07:44:29.183Z,75.90
2018-02-24T07:47:00.339Z,76.60
2018-02-24T07:49:30.618Z,77.70
2018-02-24T07:52:00.870Z,81.70
2018-02-24T07:54:31.284Z,80.90
2018-02-24T07:57:01.246Z,82.10
2018-02-24T07:59:31.469Z,82.80
2018-02-24T08:02:02.897Z,84.70
2018-02-24T08:04:33.668Z,84.50
2018-02-24T08:07:04.660Z,86.10
2018-02-24T08:09:36.030Z,87.40
2018-02-24T08:12:07.075Z,87.50
2018-02-24T08:14:37.686Z,88.00
2018-02-24T08:17:08.409Z,88.40
2018-02-24T08:19:38.971Z,88.50
2018-02-24T08:22:15.754Z,88.70
2018-02-24T08:24:45.669Z,88.10
2018-02-24T08:27:15.810Z,87.20
2018-02-24T08:29:46.960Z,87.30
2018-02-24T08:32:17.885Z,87.80
2018-02-24T08:34:48.069Z,87.70
2018-02-24T08:37:18.081Z,86.70
2018-02-24T08:39:48.683Z,86.80
2018-02-24T08:42:19.512Z,86.70
2018-02-24T08:44:51.125Z,86.80
2018-02-24T08:47:21.327Z,87.70
2018-02-24T08:49:53.244Z,87.80
2018-02-24T08:52:23.930Z,87.00
2018-02-24T08:54:53.656Z,87.00
2018-02-24T08:57:23.910Z,86.60
2018-02-24T08:59:54.310Z,86.00
2018-02-24T09:02:24.498Z,84.30
2018-02-24T09:04:55.326Z,84.40
2018-02-24T09:07:25.506Z,84.00
2018-02-24T09:09:56.519Z,82.70
2018-02-24T09:12:26.963Z,82.60
2018-02-24T09:14:57.370Z,83.20
2018-02-24T09:17:27.566Z,83.40
2018-02-24T09:19:57.705Z,83.70
2018-02-24T09:22:28.151Z,83.90
2018-02-24T09:24:58.972Z,83.50
2018-02-24T09:27:29.327Z,84.00
2018-02-24T09:29:59.513Z,83.80
2018-02-24T09:32:30.176Z,83.60
2018-02-24T09:35:00.164Z,83.60
2018-02-24T09:37:30.243Z,83.60
2018-02-24T09:40:00.428Z,83.90
2018-02-24T09:42:30.426Z,84.00
2018-02-24T09:45:00.853Z,83.80
2018-02-24T09:47:32.082Z,82.90
2018-02-24T09:50:02.915Z,84.30
2018-02-24T09:52:33.437Z,87.30
2018-02-24T09:55:03.207Z,87.00
2018-02-24T09:57:34.146Z,90.00
2018-02-24T10:00:05.159Z,90.30
2018-02-24T10:02:34.996Z,90.30
2018-02-24T10:05:06.006Z,91.00
2018-02-24T10:07:36.091Z,91.00
2018-02-24T10:10:06.282Z,91.10
2018-02-24T10:12:37.922Z,91.60
2018-02-24T10:15:08.139Z,91.60
2018-02-24T10:17:38.308Z,92.10
2018-02-24T10:20:08.650Z,91.80
2018-02-24T10:22:38.468Z,84.70
2018-02-24T10:25:08.490Z,84.70
2018-02-24T10:27:38.922Z,82.70
2018-02-24T10:30:09.050Z,84.50
2018-02-24T10:32:39.153Z,86.10
2018-02-24T10:35:09.658Z,88.50
2018-02-24T10:37:39.578Z,87.30
2018-02-24T10:40:10.014Z,85.90
2018-02-24T10:42:40.045Z,86.60
2018-02-24T10:45:10.326Z,88.00
2018-02-24T10:47:40.452Z,88.60
2018-02-24T10:50:10.707Z,88.10
2018-02-24T10:52:42.075Z,89.00
2018-02-24T10:55:13.882Z,88.90
2018-02-24T10:57:44.041Z,88.90
2018-02-24T11:00:14.246Z,88.80
2018-02-24T11:02:45.131Z,88.70
2018-02-24T11:05:16.645Z,88.20
2018-02-24T11:07:47.728Z,88.30
2018-02-24T11:10:18.030Z,89.50
2018-02-24T11:12:48.745Z,89.10
2018-02-24T11:15:19.142Z,88.70
2018-02-24T11:17:49.628Z,90.20
2018-02-24T11:20:19.905Z,90.30
2018-02-24T11:22:49.677Z,90.70
2018-02-24T11:25:20.711Z,90.80
2018-02-24T11:27:51.444Z,90.80
2018-02-24T11:30:22.346Z,90.50
2018-02-24T11:32:52.461Z,90.60
2018-02-24T11:35:22.997Z,90.90
2018-02-24T11:37:53.942Z,90.70
2018-02-24T11:40:24.909Z,90.70
2018-02-24T11:42:55.980Z,91.30
2018-02-24T11:45:26.183Z,91.30
2018-02-24T11:47:57.058Z,91.50
2018-02-24T11:50:27.393Z,91.50
2018-02-24T11:52:57.435Z,92.20
2018-02-24T11:55:27.422Z,92.60
2018-02-24T11:57:57.603Z,92.60
2018-02-24T12:00:28.057Z,92.50
2018-02-24T12:02:57.905Z,92.50
2018-02-24T12:05:28.066Z,92.90
2018-02-24T12:07:58.865Z,92.40
2018-02-24T12:10:28.762Z,92.40
2018-02-24T12:12:59.131Z,92.90
2018-02-24T12:15:30.142Z,93.20
2018-02-24T12:18:00.277Z,93.20
2018-02-24T12:20:30.546Z,93.50
2018-02-24T12:23:00.652Z,93.20
2018-02-24T12:25:31.328Z,93.50
2018-02-24T12:28:01.470Z,93.50
2018-02-24T12:30:31.849Z,93.70
2018-02-24T12:33:01.689Z,93.50
2018-02-24T12:35:32.109Z,93.50
2018-02-24T12:38:02.206Z,93.30
2018-02-24T12:40:32.267Z,93.50
2018-02-24T12:43:02.322Z,93.70
2018-02-24T12:45:32.204Z,94.10
2018-02-24T12:48:02.978Z,94.10
2018-02-24T12:50:33.326Z,94.10
2018-02-24T12:53:03.976Z,94.20
2018-02-24T12:55:34.393Z,94.20
2018-02-24T12:58:04.507Z,94.10
2018-02-24T13:00:35.493Z,94.20
2018-02-24T13:03:06.546Z,94.60
2018-02-24T13:05:37.743Z,94.50
2018-02-24T13:08:07.996Z,94.50
2018-02-24T13:10:38.395Z,94.20
2018-02-24T13:13:08.622Z,94.00
2018-02-24T13:15:38.773Z,94.30
2018-02-24T13:18:09.474Z,94.00
2018-02-24T13:20:39.573Z,94.00
2018-02-24T13:23:09.720Z,93.90
2018-02-24T13:25:39.732Z,93.50
2018-02-24T13:28:09.950Z,93.70
2018-02-24T13:30:41.028Z,94.00
2018-02-24T13:33:12.138Z,93.60
2018-02-24T13:35:42.765Z,93.60
2018-02-24T13:38:13.094Z,93.60
2018-02-24T13:40:43.411Z,93.60
2018-02-24T13:43:13.634Z,93.80
2018-02-24T13:45:43.477Z,94.10
2018-02-24T13:48:13.702Z,94.00
2018-02-24T13:50:44.541Z,93.70
2018-02-24T13:53:15.389Z,93.60
2018-02-24T13:55:46.524Z,93.50
2018-02-24T13:58:17.251Z,93.50
2018-02-24T14:00:47.373Z,93.50
2018-02-24T14:03:18.070Z,93.30
2018-02-24T14:05:48.122Z,93.30
2018-02-24T14:08:19.145Z,93.10
2018-02-24T14:10:49.335Z,93.10
2018-02-24T14:13:19.552Z,94.00
2018-02-24T14:15:49.902Z,93.90
2018-02-24T14:18:20.019Z,93.70
2018-02-24T14:20:50.514Z,93.80
2018-02-24T14:23:20.786Z,93.70
2018-02-24T14:25:52.059Z,93.50
2018-02-24T14:28:23.167Z,93.30
2018-02-24T14:30:54.656Z,93.30
2018-02-24T14:33:26.241Z,93.10
2018-02-24T14:35:57.710Z,93.30
2018-02-24T14:38:27.637Z,93.30
2018-02-24T14:40:58.052Z,93.60
2018-02-24T14:43:28.220Z,93.30
2018-02-24T14:45:59.905Z,93.60
2018-02-24T14:48:30.484Z,93.60
2018-02-24T14:51:00.678Z,94.00
2018-02-24T14:53:30.929Z,93.90
2018-02-24T14:56:00.860Z,93.20
2018-02-24T14:58:31.315Z,92.90
2018-02-24T15:01:01.670Z,93.60
2018-02-24T15:03:33.042Z,94.70
2018-02-24T15:06:03.809Z,93.80
2018-02-24T15:08:35.855Z,94.00
2018-02-24T15:11:06.707Z,95.00
2018-02-24T15:13:37.105Z,95.00
2018-02-24T15:16:06.842Z,94.00
2018-02-24T15:18:38.271Z,93.90
2018-02-24T15:21:08.554Z,93.90
2018-02-24T15:23:39.289Z,95.30
2018-02-24T15:26:09.038Z,94.00
2018-02-24T15:28:39.239Z,93.50
2018-02-24T15:31:09.103Z,94.10
2018-02-24T15:33:39.139Z,94.50
2018-02-24T15:36:09.335Z,93.90
2018-02-24T15:38:40.214Z,94.20
2018-02-24T15:41:10.436Z,94.20
2018-02-24T15:43:40.735Z,94.80
2018-02-24T15:46:11.081Z,95.00
2018-02-24T15:48:41.164Z,95.10
2018-02-24T15:51:13.382Z,95.20
2018-02-24T15:53:44.493Z,94.90
2018-02-24T15:56:17.860Z,95.00
2018-02-24T15:58:49.563Z,94.90
2018-02-24T16:01:19.994Z,94.90
2018-02-24T16:03:50.647Z,95.10
2018-02-24T16:06:21.711Z,94.90
2018-02-24T16:08:52.846Z,95.00
2018-02-24T16:11:24.211Z,95.10
2018-02-24T16:13:55.106Z,95.20
2018-02-24T16:16:25.767Z,95.10
2018-02-24T16:18:56.398Z,95.40
2018-02-24T16:21:27.805Z,95.80
2018-02-24T16:23:58.126Z,95.50
2018-02-24T16:26:29.238Z,95.30
2018-02-24T16:29:00.275Z,95.10
2018-02-24T16:31:30.113Z,95.10
2018-02-24T16:34:00.303Z,95.10
2018-02-24T16:36:31.290Z,95.30
2018-02-24T16:39:01.701Z,95.30
2018-02-24T16:41:31.760Z,95.20
2018-02-24T16:44:02.066Z,95.40
2018-02-24T16:46:32.697Z,95.50
2018-02-24T16:49:03.461Z,95.70
2018-02-24T16:51:34.199Z,95.60
2018-02-24T16:54:04.383Z,95.60
2018-02-24T16:56:34.895Z,96.00
2018-02-24T16:59:05.252Z,95.40
2018-02-24T17:01:35.470Z,95.30
2018-02-24T17:04:05.978Z,95.30
2018-02-24T17:06:36.158Z,95.50
2018-02-24T17:09:07.153Z,95.80
2018-02-24T17:11:37.493Z,95.80
2018-02-24T17:14:07.661Z,95.80
2018-02-24T17:16:37.871Z,95.80
2018-02-24T17:19:08.874Z,95.80
2018-02-24T17:21:40.817Z,95.70
2018-02-24T17:24:11.024Z,95.70
2018-02-24T17:26:41.210Z,95.60
2018-02-24T17:29:12.387Z,95.40
2018-02-24T17:31:42.542Z,95.40
2018-02-24T17:34:12.965Z,95.10
2018-02-24T17:36:43.183Z,95.70
2018-02-24T17:39:13.798Z,95.60
2018-02-24T17:41:43.598Z,95.40
2018-02-24T17:44:13.951Z,95.50
2018-02-24T17:46:44.056Z,95.40
2018-02-24T17:49:14.417Z,93.20
2018-02-24T17:51:44.955Z,93.10
2018-02-24T17:54:16.222Z,94.10
2018-02-24T17:56:46.692Z,94.10
2018-02-24T17:59:16.881Z,94.70
2018-02-24T18:01:47.791Z,95.00
2018-02-24T18:04:19.073Z,94.50
2018-02-24T18:06:49.495Z,94.40
2018-02-24T18:09:19.554Z,94.00
2018-02-24T18:11:50.536Z,93.90
2018-02-24T18:14:21.513Z,94.20
2018-02-24T18:16:52.725Z,94.00
2018-02-24T18:19:23.115Z,94.00
2018-02-24T18:21:53.419Z,93.20
2018-02-24T18:24:23.587Z,93.00
2018-02-24T18:26:54.477Z,92.90
2018-02-24T18:29:24.936Z,92.90
2018-02-24T18:31:56.025Z,93.10
2018-02-24T18:34:26.440Z,93.10
2018-02-24T18:36:56.743Z,92.70
2018-02-24T18:39:28.148Z,92.60
2018-02-24T18:41:58.692Z,92.70
2018-02-24T18:44:30.021Z,93.20
2018-02-24T18:47:00.622Z,93.40
2018-02-24T18:49:30.669Z,93.40
2018-02-24T18:52:00.792Z,92.90
2018-02-24T18:54:31.107Z,92.30
2018-02-24T18:57:01.267Z,91.90
2018-02-24T18:59:31.978Z,92.20
2018-02-24T19:02:02.310Z,92.20
2018-02-24T19:04:32.025Z,91.80
2018-02-24T19:07:02.271Z,91.80
2018-02-24T19:09:33.339Z,91.60
2018-02-24T19:12:03.829Z,91.50
2018-02-24T19:14:35.115Z,91.20
2018-02-24T19:17:05.453Z,91.20
2018-02-24T19:19:35.962Z,91.70
2018-02-24T19:22:06.304Z,91.60
2018-02-24T19:24:37.034Z,91.40
2018-02-24T19:27:07.378Z,91.50
2018-02-24T19:29:37.755Z,91.80
2018-02-24T19:32:08.744Z,91.80
2018-02-24T19:34:38.858Z,91.80
2018-02-24T19:37:09.258Z,92.00
2018-02-24T19:39:39.608Z,92.20
2018-02-24T19:42:09.871Z,92.00
2018-02-24T19:44:40.911Z,92.50
2018-02-24T19:47:11.664Z,92.80
2018-02-24T19:49:42.045Z,92.80
2018-02-24T19:52:12.299Z,92.60
2018-02-24T19:54:43.118Z,92.60
2018-02-24T19:57:13.036Z,92.50
2018-02-24T19:59:43.233Z,93.10
2018-02-24T20:02:13.242Z,93.50
2018-02-24T20:04:44.609Z,93.40
2018-02-24T20:07:14.814Z,93.40
2018-02-24T20:09:44.663Z,93.70
2018-02-24T20:12:14.746Z,93.90
2018-02-24T20:14:44.853Z,94.20
2018-02-24T20:17:14.994Z,94.30
2018-02-24T20:19:45.102Z,94.20
2018-02-24T20:22:15.230Z,94.10
2018-02-24T20:24:45.548Z,94.10
2018-02-24T20:27:15.648Z,93.90
2018-02-24T20:29:45.916Z,94.00
2018-02-24T20:32:16.390Z,94.00
2018-02-24T20:34:46.540Z,93.80
2018-02-24T20:37:16.484Z,93.40
2018-02-24T20:39:46.670Z,93.10
2018-02-24T20:42:16.770Z,93.10
2018-02-24T20:44:47.054Z,92.90
2018-02-24T20:47:16.838Z,92.70
2018-02-24T20:49:46.536Z,93.30
2018-02-24T20:52:16.534Z,93.00
2018-02-24T20:54:47.024Z,93.00
2018-02-24T20:57:18.144Z,93.40
2018-02-24T20:59:48.251Z,93.40
2018-02-24T21:02:18.328Z,93.10
2018-02-24T21:04:48.684Z,93.00
2018-02-24T21:07:18.874Z,93.20
2018-02-24T21:09:49.035Z,93.10
2018-02-24T21:12:18.862Z,92.90
2018-02-24T21:14:48.850Z,93.90
2018-02-24T21:17:20.305Z,93.80
2018-02-24T21:19:50.532Z,93.60
2018-02-24T21:22:20.442Z,93.30
2018-02-24T21:24:50.699Z,93.10
2018-02-24T21:27:21.698Z,93.40
2018-02-24T21:29:52.023Z,93.40
2018-02-24T21:32:22.965Z,93.40
2018-02-24T21:34:53.667Z,93.60
2018-02-24T21:37:23.712Z,93.20
2018-02-24T21:39:54.037Z,93.50
2018-02-24T21:42:23.968Z,93.30
2018-02-24T21:44:54.135Z,92.50
2018-02-24T21:47:24.150Z,92.10
2018-02-24T21:49:55.318Z,92.20
2018-02-24T21:52:25.489Z,92.10
2018-02-24T21:54:55.992Z,92.10
2018-02-24T21:57:26.299Z,91.80
2018-02-24T21:59:56.721Z,91.70
2018-02-24T22:02:27.062Z,91.80
2018-02-24T22:04:57.234Z,91.50
2018-02-24T22:07:28.056Z,91.80
2018-02-24T22:09:58.659Z,91.90
2018-02-24T22:12:29.170Z,91.90
2018-02-24T22:14:59.314Z,91.90
2018-02-24T22:17:29.053Z,91.40
2018-02-24T22:20:00.398Z,91.90
2018-02-24T22:22:31.760Z,92.40
2018-02-24T22:25:03.297Z,92.70
2018-02-24T22:27:34.445Z,92.30
2018-02-24T22:30:04.859Z,92.20
2018-02-24T22:32:35.587Z,91.90
2018-02-24T22:35:06.625Z,91.70
2018-02-24T22:37:36.698Z,91.70
2018-02-24T22:40:07.032Z,92.20
2018-02-24T22:42:37.227Z,92.40
2018-02-24T22:45:07.623Z,92.80
2018-02-24T22:47:42.986Z,92.40
2018-02-24T22:50:14.002Z,92.10
2018-02-24T22:52:44.286Z,92.00
2018-02-24T22:55:14.456Z,92.30
2018-02-24T22:57:45.451Z,93.20
2018-02-24T23:00:16.713Z,92.90
2018-02-24T23:02:47.796Z,93.00
2018-02-24T23:05:19.717Z,93.40
2018-02-24T23:07:50.367Z,93.30
2018-02-24T23:10:20.675Z,93.10
2018-02-24T23:12:52.254Z,93.50
2018-02-24T23:15:22.982Z,93.40
2018-02-24T23:17:53.315Z,93.40
2018-02-24T23:20:24.938Z,93.50
2018-02-24T23:22:55.067Z,93.50
2018-02-24T23:25:25.556Z,93.40
2018-02-24T23:27:55.781Z,93.60
2018-02-24T23:30:26.208Z,93.40
2018-02-24T23:32:56.469Z,93.50
2018-02-24T23:35:26.599Z,93.50
2018-02-24T23:37:56.789Z,93.50
2018-02-24T23:40:27.181Z,93.60
2018-02-24T23:42:57.955Z,93.60
2018-02-24T23:45:28.073Z,93.60
2018-02-24T23:47:58.497Z,93.50
2018-02-24T23:50:28.926Z,93.50
2018-02-24T23:52:59.395Z,93.30
2018-02-24T23:55:31.974Z,93.30
2018-02-24T23:58:02.707Z,93.30
